Detall de PIREP

Printer-friendly versionPDF version

[2010/07/15 22:04:00]
Flight IATA:CT2209
Pilot Number:026
Company ICAO:CAT
Aircraft Type:DC85/A
PAX:136
Departing Airport: LFQQ
Destination Airport: LFMP
Alternate Airport:LFBO
Online: VATSIM
Route:CMB UT35 LESDO UN872 KOVIN UY317 RESMI UN857 DIRMO UN855 OLRAK UZ131 BADAM UY27 SIJAN
Flight Level:FL350
No Slew and time accel
No pause
Crash detect
Detect pilot in Cockpit between each 30 and 45 minutes
22:04 Zero fuel Weight: 179627 Lbs, Fuel Weight: 30011 Lbs
22:04 VATSIM:LFQQ 152100Z 18007KT CAVOK 18/10 Q1012 NOSIG
22:04 VATSIM:LFMP 152130Z AUTO 28004KT 240V310 9999NDV NSC 24/14 Q1014
22:04 VOICE CATALONIAN / IATA CT2209
22:14 Parking Brakes off
22:23 Take-off
22:23 Take off Weight: 208232 Lbs
22:23 Wind: 182º @ 005 Knots Heading: 257º
22:23 POS N50º 33´ 51´´ E003º 05´ 32´´
22:23 Gear Up: 164 Knots
22:23 Flaps:2 at 164 Knots
22:23 Flaps:1 at 172 Knots
22:25 Flaps
:0 at 208 Knots
22:38 Wind:171º@026 Knots Heading: 209º Ground Speed: 427 Knots Altitude 28553 ft
22:43 TOC
22:43 Fuel Weight: 22674 Lb
22:53 Wind:179º@016 Knots Heading: 178º Ground Speed: 463 Knots Altitude 35026 ft
23:08 Wind:136º@000 Knots Heading: 181º Ground Speed: 484 Knots Altitude 35082 ft
23:14 TOD
23:14 Fuel Weight: 15921 Lb
23:23 Wind:272º@002 Knots Heading: 190º Ground Speed: 431 Knots Altitude 19632 ft
23:38 Wind:220º@009 Knots Heading: 110º Ground Speed: 203 Knots Altitude 3083 ft
23:41 Flaps:1 at 151 Knots
23:42 Gear Down: 182 Knots
23:43 Flaps:2 at 144 Knots
23:43 Flaps:3 at 156 Knots
23:43 Flaps:4 at 161 Knots
23:44 Flaps:5 at 176 Knots
23:44 Flaps:4 at 165 Knots
23:44 Flaps:3 at 165 Knots
23:45 Flaps:2 at 163 Knots
23:45 Gear Up: 162 Knots
23:46 Flaps:1 at 189 Knots
23:48 Flaps:0 at 225 Knots
23:53 Wind:221º@006 Knots Heading: 245º Grou
nd Speed: 181 Knots Altitude 1968 ft
23:54 Flaps:1 at 203 Knots
23:54 Gear Down: 203 Knots
23:54 Flaps:2 at 175 Knots
23:55 Flaps:3 at 162 Knots
23:55 Flaps:4 at 155 Knots
23:55 Flaps:5 at 147 Knots
23:56 TouchDown:Rate -370 ft/min Speed: 126 Knots
23:56 VATSIM:LFMP 152330Z AUTO 22006KT 9999NDV NSC 25/13 Q1014
23:56 Land
23:56 Wind:217º@006 Knots
23:56 Heading: 327º
23:56 Flight Duration: 01:33
23:56 Landing Weight: 190157 Lbs
23:56 POS N42º 44´ 52´´ E002º 52´ 00´´
00:01 Parking brakes on
00:01 Block to Block Duration: 01:47
00:01 Final Fuel: 10132 Lbls
00:01 Spent Fuel: 19878 Lbls
00:01 Flight Length: 559 NM
00:01 TOD Land Length: 202 NM

Exportar CSV

Powered by Drupal - Modified by Danger4k